sensor_id;sensor_type;location;lat;lon;timestamp;pressure;altitude;pressure_sealevel;temperature;humidity
76166;BME280;65085;46.718;20.136;2024-03-29T00:01:24;99927.78;;;8.98;100.00
76166;BME280;65085;46.718;20.136;2024-03-29T00:04:26;99937.78;;;8.90;100.00
76166;BME280;65085;46.718;20.136;2024-03-29T00:07:30;99951.31;;;8.87;100.00
76166;BME280;65085;46.718;20.136;2024-03-29T00:10:35;99962.53;;;8.85;100.00
76166;BME280;65085;46.718;20.136;2024-03-29T00:13:38;99967.94;;;8.85;100.00
76166;BME280;65085;46.718;20.136;2024-03-29T00:16:49;99988.16;;;8.98;100.00
76166;BME280;65085;46.718;20.136;2024-03-29T00:19:53;99996.59;;;8.90;100.00
76166;BME280;65085;46.718;20.136;2024-03-29T00:27:43;99956.75;;;8.87;100.00
76166;BME280;65085;46.718;20.136;2024-03-29T00:30:53;99959.47;;;8.94;100.00
76166;BME280;65085;46.718;20.136;2024-03-29T00:34:03;99963.84;;;9.09;100.00
76166;BME280;65085;46.718;20.136;2024-03-29T00:37:07;99958.13;;;9.17;100.00
76166;BME280;65085;46.718;20.136;2024-03-29T00:40:42;99951.13;;;9.13;100.00
76166;BME280;65085;46.718;20.136;2024-03-29T00:43:45;99948.44;;;9.16;100.00
76166;BME280;65085;46.718;20.136;2024-03-29T00:46:53;99933.22;;;9.01;100.00
76166;BME280;65085;46.718;20.136;2024-03-29T00:49:58;99973.97;;;9.12;100.00
76166;BME280;65085;46.718;20.136;2024-03-29T00:53:00;99968.91;;;9.10;100.00
76166;BME280;65085;46.718;20.136;2024-03-29T00:56:04;99958.13;;;9.17;100.00
76166;BME280;65085;46.718;20.136;2024-03-29T00:59:06;99978.22;;;9.13;100.00
76166;BME280;65085;46.718;20.136;2024-03-29T01:02:12;99974.31;;;9.10;100.00
76166;BME280;65085;46.718;20.136;2024-03-29T01:05:25;99996.38;;;9.09;100.00
76166;BME280;65085;46.718;20.136;2024-03-29T01:08:33;100014.69;;;9.26;100.00
76166;BME280;65085;46.718;20.136;2024-03-29T01:16:00;100070.72;;;9.11;100.00
76166;BME280;65085;46.718;20.136;2024-03-29T01:19:03;100078.09;;;9.11;100.00
76166;BME280;65085;46.718;20.136;2024-03-29T01:22:13;100114.72;;;8.98;100.00
76166;BME280;65085;46.718;20.136;2024-03-29T01:25:19;100114.81;;;9.08;100.00
76166;BME280;65085;46.718;20.136;2024-03-29T01:28:22;100084.88;;;8.94;100.00
76166;BME280;65085;46.718;20.136;2024-03-29T01:31:24;100123.59;;;8.98;100.00
76166;BME280;65085;46.718;20.136;2024-03-29T01:34:27;100147.09;;;8.87;100.00
76166;BME280;65085;46.718;20.136;2024-03-29T01:37:33;100145.63;;;8.93;100.00
76166;BME280;65085;46.718;20.136;2024-03-29T01:40:38;100129.66;;;8.85;100.00
76166;BME280;65085;46.718;20.136;2024-03-29T01:43:40;100144.06;;;8.92;100.00
76166;BME280;65085;46.718;20.136;2024-03-29T01:46:44;100149.38;;;8.82;100.00
76166;BME280;65085;46.718;20.136;2024-03-29T01:54:34;100182.28;;;8.84;100.00
76166;BME280;65085;46.718;20.136;2024-03-29T01:57:40;100208.25;;;8.88;100.00
76166;BME280;65085;46.718;20.136;2024-03-29T02:05:27;100213.03;;;8.69;100.00
76166;BME280;65085;46.718;20.136;2024-03-29T02:08:30;100220.13;;;8.51;100.00
76166;BME280;65085;46.718;20.136;2024-03-29T02:12:06;100228.94;;;8.44;100.00
76166;BME280;65085;46.718;20.136;2024-03-29T02:15:11;100219.75;;;8.23;100.00
76166;BME280;65085;46.718;20.136;2024-03-29T02:18:16;100245.28;;;8.25;100.00
76166;BME280;65085;46.718;20.136;2024-03-29T02:21:19;100247.38;;;8.13;100.00
76166;BME280;65085;46.718;20.136;2024-03-29T02:24:23;100240.75;;;8.10;100.00
76166;BME280;65085;46.718;20.136;2024-03-29T02:27:26;100245.22;;;7.99;100.00
76166;BME280;65085;46.718;20.136;2024-03-29T02:30:29;100243.97;;;7.93;100.00
76166;BME280;65085;46.718;20.136;2024-03-29T02:33:38;100254.66;;;7.86;100.00
76166;BME280;65085;46.718;20.136;2024-03-29T02:36:41;100247.03;;;7.69;100.00
76166;BME280;65085;46.718;20.136;2024-03-29T02:39:47;100272.91;;;7.70;100.00
76166;BME280;65085;46.718;20.136;2024-03-29T02:42:50;100290.28;;;7.69;100.00
76166;BME280;65085;46.718;20.136;2024-03-29T02:45:54;100268.28;;;7.48;100.00
76166;BME280;65085;46.718;20.136;2024-03-29T02:48:56;100273.63;;;7.45;100.00
76166;BME280;65085;46.718;20.136;2024-03-29T02:52:00;100286.25;;;7.41;100.00
76166;BME280;65085;46.718;20.136;2024-03-29T02:55:04;100305.97;;;7.41;100.00
76166;BME280;65085;46.718;20.136;2024-03-29T02:58:06;100314.22;;;7.29;100.00
76166;BME280;65085;46.718;20.136;2024-03-29T03:01:08;100311.16;;;7.31;100.00
76166;BME280;65085;46.718;20.136;2024-03-29T03:04:10;100329.22;;;7.27;100.00
76166;BME280;65085;46.718;20.136;2024-03-29T03:07:12;100337.34;;;7.27;100.00
76166;BME280;65085;46.718;20.136;2024-03-29T03:10:35;100331.41;;;7.21;100.00
76166;BME280;65085;46.718;20.136;2024-03-29T03:13:55;100334.13;;;7.21;100.00
76166;BME280;65085;46.718;20.136;2024-03-29T03:16:57;100341.31;;;7.14;100.00
76166;BME280;65085;46.718;20.136;2024-03-29T03:19:59;100337.06;;;6.97;100.00
76166;BME280;65085;46.718;20.136;2024-03-29T03:23:02;100352.28;;;7.05;100.00
76166;BME280;65085;46.718;20.136;2024-03-29T03:26:05;100345.16;;;6.97;100.00
76166;BME280;65085;46.718;20.136;2024-03-29T03:29:07;100354.00;;;6.94;100.00
76166;BME280;65085;46.718;20.136;2024-03-29T03:32:11;100352.44;;;6.93;100.00
76166;BME280;65085;46.718;20.136;2024-03-29T03:35:13;100345.66;;;6.84;100.00
76166;BME280;65085;46.718;20.136;2024-03-29T03:38:16;100359.22;;;6.88;100.00
76166;BME280;65085;46.718;20.136;2024-03-29T03:46:02;100371.88;;;6.84;100.00
76166;BME280;65085;46.718;20.136;2024-03-29T03:49:04;100377.53;;;6.79;100.00
76166;BME280;65085;46.718;20.136;2024-03-29T03:52:06;100381.81;;;6.80;100.00
76166;BME280;65085;46.718;20.136;2024-03-29T03:55:08;100373.97;;;6.75;100.00
76166;BME280;65085;46.718;20.136;2024-03-29T03:58:10;100392.84;;;6.75;100.00
76166;BME280;65085;46.718;20.136;2024-03-29T04:01:13;100387.47;;;6.75;100.00
76166;BME280;65085;46.718;20.136;2024-03-29T04:04:15;100402.72;;;6.67;100.00
76166;BME280;65085;46.718;20.136;2024-03-29T04:12:04;100416.81;;;6.61;100.00
76166;BME280;65085;46.718;20.136;2024-03-29T04:15:07;100418.28;;;6.43;100.00
76166;BME280;65085;46.718;20.136;2024-03-29T04:18:10;100409.84;;;6.44;100.00
76166;BME280;65085;46.718;20.136;2024-03-29T04:21:12;100411.31;;;6.42;100.00
76166;BME280;65085;46.718;20.136;2024-03-29T04:24:14;100412.03;;;6.39;100.00
76166;BME280;65085;46.718;20.136;2024-03-29T04:27:16;100422.28;;;6.49;100.00
76166;BME280;65085;46.718;20.136;2024-03-29T04:30:18;100431.38;;;6.56;100.00
76166;BME280;65085;46.718;20.136;2024-03-29T04:33:22;100421.25;;;6.53;100.00
76166;BME280;65085;46.718;20.136;2024-03-29T04:36:25;100434.31;;;6.51;100.00
76166;BME280;65085;46.718;20.136;2024-03-29T04:39:27;100434.41;;;6.55;100.00
76166;BME280;65085;46.718;20.136;2024-03-29T04:42:29;100441.78;;;6.58;100.00
76166;BME280;65085;46.718;20.136;2024-03-29T04:50:15;100455.47;;;6.65;100.00
76166;BME280;65085;46.718;20.136;2024-03-29T04:53:17;100464.69;;;6.64;100.00
76166;BME280;65085;46.718;20.136;2024-03-29T04:56:19;100467.16;;;6.69;100.00
76166;BME280;65085;46.718;20.136;2024-03-29T04:59:21;100454.44;;;6.69;100.00
76166;BME280;65085;46.718;20.136;2024-03-29T05:02:24;100471.88;;;6.87;100.00
76166;BME280;65085;46.718;20.136;2024-03-29T05:05:28;100485.88;;;6.93;100.00
76166;BME280;65085;46.718;20.136;2024-03-29T05:08:30;100475.75;;;6.89;100.00
76166;BME280;65085;46.718;20.136;2024-03-29T05:11:32;100494.50;;;6.98;100.00
76166;BME280;65085;46.718;20.136;2024-03-29T05:14:35;100493.97;;;7.08;100.00
76166;BME280;65085;46.718;20.136;2024-03-29T05:17:37;100515.41;;;7.16;100.00
76166;BME280;65085;46.718;20.136;2024-03-29T05:25:22;100525.63;;;7.42;100.00
76166;BME280;65085;46.718;20.136;2024-03-29T05:28:25;100529.72;;;7.51;100.00
76166;BME280;65085;46.718;20.136;2024-03-29T05:31:28;100531.97;;;7.65;100.00
76166;BME280;65085;46.718;20.136;2024-03-29T05:34:30;100542.03;;;7.83;100.00
76166;BME280;65085;46.718;20.136;2024-03-29T05:37:33;100546.72;;;7.86;100.00
76166;BME280;65085;46.718;20.136;2024-03-29T05:40:37;100562.78;;;7.95;100.00
76166;BME280;65085;46.718;20.136;2024-03-29T05:43:39;100567.47;;;7.98;100.00
76166;BME280;65085;46.718;20.136;2024-03-29T05:46:42;100566.69;;;7.97;100.00
76166;BME280;65085;46.718;20.136;2024-03-29T05:49:44;100563.09;;;8.28;100.00
76166;BME280;65085;46.718;20.136;2024-03-29T05:52:49;100570.66;;;8.38;100.00
76166;BME280;65085;46.718;20.136;2024-03-29T05:55:53;100566.47;;;8.59;100.00
76166;BME280;65085;46.718;20.136;2024-03-29T05:58:55;100581.75;;;8.71;100.00
76166;BME280;65085;46.718;20.136;2024-03-29T06:01:57;100578.72;;;8.95;100.00
76166;BME280;65085;46.718;20.136;2024-03-29T06:05:01;100573.41;;;9.02;100.00
76166;BME280;65085;46.718;20.136;2024-03-29T06:12:08;100579.97;;;9.46;100.00
76166;BME280;65085;46.718;20.136;2024-03-29T06:19:55;100569.34;;;9.86;100.00
76166;BME280;65085;46.718;20.136;2024-03-29T06:22:58;100588.16;;;10.27;98.18
76166;BME280;65085;46.718;20.136;2024-03-29T06:26:00;100572.97;;;10.52;97.79
76166;BME280;65085;46.718;20.136;2024-03-29T06:29:05;100571.22;;;10.70;93.98
76166;BME280;65085;46.718;20.136;2024-03-29T06:32:08;100589.28;;;10.88;91.49
76166;BME280;65085;46.718;20.136;2024-03-29T06:35:10;100599.75;;;11.26;89.93
76166;BME280;65085;46.718;20.136;2024-03-29T06:38:12;100603.53;;;11.58;89.09
76166;BME280;65085;46.718;20.136;2024-03-29T06:41:15;100602.53;;;11.84;85.80
76166;BME280;65085;46.718;20.136;2024-03-29T06:44:20;100585.91;;;11.96;83.26
76166;BME280;65085;46.718;20.136;2024-03-29T06:47:23;100612.50;;;12.20;83.65
76166;BME280;65085;46.718;20.136;2024-03-29T06:55:01;100599.53;;;12.85;77.56
76166;BME280;65085;46.718;20.136;2024-03-29T06:58:04;100593.00;;;13.42;75.81
76166;BME280;65085;46.718;20.136;2024-03-29T07:01:08;100591.06;;;13.42;73.77
76166;BME280;65085;46.718;20.136;2024-03-29T07:04:10;100580.91;;;13.39;75.28
76166;BME280;65085;46.718;20.136;2024-03-29T07:11:35;100587.44;;;14.26;72.51
76166;BME280;65085;46.718;20.136;2024-03-29T07:14:37;100594.81;;;14.46;71.91
76166;BME280;65085;46.718;20.136;2024-03-29T07:17:40;100592.22;;;14.90;70.21
76166;BME280;65085;46.718;20.136;2024-03-29T07:20:45;100601.91;;;15.05;70.75
76166;BME280;65085;46.718;20.136;2024-03-29T07:23:47;100601.25;;;15.48;66.85
76166;BME280;65085;46.718;20.136;2024-03-29T07:26:49;100608.91;;;15.64;62.72
76166;BME280;65085;46.718;20.136;2024-03-29T07:29:51;100614.19;;;15.41;62.24
76166;BME280;65085;46.718;20.136;2024-03-29T07:36:51;100605.97;;;15.88;58.88
76166;BME280;65085;46.718;20.136;2024-03-29T07:39:53;100609.94;;;16.21;57.33
76166;BME280;65085;46.718;20.136;2024-03-29T07:42:55;100613.22;;;16.46;58.42
76166;BME280;65085;46.718;20.136;2024-03-29T07:45:57;100606.09;;;16.82;60.48
76166;BME280;65085;46.718;20.136;2024-03-29T07:48:59;100608.13;;;17.31;58.28
76166;BME280;65085;46.718;20.136;2024-03-29T07:52:05;100598.63;;;17.35;57.60
76166;BME280;65085;46.718;20.136;2024-03-29T07:55:33;100608.47;;;17.82;54.38
76166;BME280;65085;46.718;20.136;2024-03-29T07:58:36;100603.16;;;17.95;52.91
76166;BME280;65085;46.718;20.136;2024-03-29T08:01:38;100616.81;;;17.98;50.68
76166;BME280;65085;46.718;20.136;2024-03-29T08:04:40;100620.25;;;18.25;49.95
76166;BME280;65085;46.718;20.136;2024-03-29T08:07:46;100631.97;;;19.07;46.98
76166;BME280;65085;46.718;20.136;2024-03-29T08:10:48;100635.22;;;19.18;45.23
76166;BME280;65085;46.718;20.136;2024-03-29T08:13:57;100622.91;;;19.74;42.92
76166;BME280;65085;46.718;20.136;2024-03-29T08:16:59;100642.78;;;19.33;42.14
76166;BME280;65085;46.718;20.136;2024-03-29T08:20:06;100650.41;;;18.90;40.06
76166;BME280;65085;46.718;20.136;2024-03-29T08:23:11;100640.72;;;19.02;41.11
76166;BME280;65085;46.718;20.136;2024-03-29T08:26:14;100630.19;;;19.32;41.23
76166;BME280;65085;46.718;20.136;2024-03-29T08:29:16;100634.09;;;19.35;40.90
76166;BME280;65085;46.718;20.136;2024-03-29T08:32:19;100656.94;;;19.67;41.61
76166;BME280;65085;46.718;20.136;2024-03-29T08:35:21;100648.75;;;19.12;40.72
76166;BME280;65085;46.718;20.136;2024-03-29T08:38:25;100637.38;;;19.94;38.54
76166;BME280;65085;46.718;20.136;2024-03-29T08:41:27;100640.06;;;19.81;38.52
76166;BME280;65085;46.718;20.136;2024-03-29T08:44:29;100641.53;;;20.30;39.04
76166;BME280;65085;46.718;20.136;2024-03-29T08:47:31;100636.91;;;20.40;37.74
76166;BME280;65085;46.718;20.136;2024-03-29T08:50:33;100645.97;;;19.96;37.52
76166;BME280;65085;46.718;20.136;2024-03-29T08:53:38;100631.47;;;20.65;37.60
76166;BME280;65085;46.718;20.136;2024-03-29T08:56:40;100641.66;;;21.09;34.69
76166;BME280;65085;46.718;20.136;2024-03-29T08:59:42;100642.09;;;21.82;33.97
76166;BME280;65085;46.718;20.136;2024-03-29T09:02:46;100651.16;;;21.20;35.27
76166;BME280;65085;46.718;20.136;2024-03-29T09:05:48;100648.69;;;20.56;35.66
76166;BME280;65085;46.718;20.136;2024-03-29T09:08:51;100637.47;;;21.17;37.60
76166;BME280;65085;46.718;20.136;2024-03-29T09:11:54;100636.56;;;21.45;37.67
76166;BME280;65085;46.718;20.136;2024-03-29T09:14:56;100625.81;;;21.84;34.49
76166;BME280;65085;46.718;20.136;2024-03-29T09:17:58;100633.16;;;21.41;34.98
76166;BME280;65085;46.718;20.136;2024-03-29T09:21:09;100630.53;;;22.30;33.68
76166;BME280;65085;46.718;20.136;2024-03-29T09:24:14;100625.56;;;21.91;35.05
76166;BME280;65085;46.718;20.136;2024-03-29T09:27:16;100629.03;;;22.50;33.42
76166;BME280;65085;46.718;20.136;2024-03-29T09:30:19;100611.44;;;22.66;33.83
76166;BME280;65085;46.718;20.136;2024-03-29T09:33:21;100631.78;;;22.72;33.25
76166;BME280;65085;46.718;20.136;2024-03-29T09:36:24;100613.03;;;21.99;34.53
76166;BME280;65085;46.718;20.136;2024-03-29T09:39:27;100620.34;;;22.61;34.69
76166;BME280;65085;46.718;20.136;2024-03-29T09:42:31;100602.38;;;22.31;34.16
76166;BME280;65085;46.718;20.136;2024-03-29T09:45:34;100603.91;;;22.45;34.95
76166;BME280;65085;46.718;20.136;2024-03-29T09:48:39;100606.88;;;23.33;32.93
76166;BME280;65085;46.718;20.136;2024-03-29T09:51:44;100602.91;;;23.52;33.24
76166;BME280;65085;46.718;20.136;2024-03-29T09:54:48;100607.19;;;22.52;34.00
76166;BME280;65085;46.718;20.136;2024-03-29T09:57:50;100597.03;;;22.49;33.60
76166;BME280;65085;46.718;20.136;2024-03-29T10:00:55;100593.25;;;22.22;33.51
76166;BME280;65085;46.718;20.136;2024-03-29T10:03:59;100600.38;;;21.89;33.85
76166;BME280;65085;46.718;20.136;2024-03-29T10:07:03;100600.81;;;22.43;33.67
76166;BME280;65085;46.718;20.136;2024-03-29T10:10:08;100603.50;;;23.47;33.33
76166;BME280;65085;46.718;20.136;2024-03-29T10:13:13;100594.84;;;23.36;31.77
76166;BME280;65085;46.718;20.136;2024-03-29T10:16:18;100592.56;;;23.04;32.26
76166;BME280;65085;46.718;20.136;2024-03-29T10:19:22;100592.19;;;22.93;33.94
76166;BME280;65085;46.718;20.136;2024-03-29T10:22:52;100585.75;;;22.96;34.21
76166;BME280;65085;46.718;20.136;2024-03-29T10:25:56;100591.00;;;22.29;34.82
76166;BME280;65085;46.718;20.136;2024-03-29T10:29:01;100582.75;;;23.69;33.31
76166;BME280;65085;46.718;20.136;2024-03-29T10:32:03;100581.88;;;22.93;34.85
76166;BME280;65085;46.718;20.136;2024-03-29T10:35:05;100575.53;;;23.14;34.60
76166;BME280;65085;46.718;20.136;2024-03-29T10:38:09;100570.69;;;23.45;34.13
76166;BME280;65085;46.718;20.136;2024-03-29T10:41:13;100565.94;;;22.76;35.58
76166;BME280;65085;46.718;20.136;2024-03-29T10:44:15;100571.38;;;22.15;37.27
76166;BME280;65085;46.718;20.136;2024-03-29T10:47:19;100572.34;;;22.64;36.03
76166;BME280;65085;46.718;20.136;2024-03-29T10:50:22;100567.50;;;22.55;35.92
76166;BME280;65085;46.718;20.136;2024-03-29T10:53:27;100569.09;;;23.93;34.62
76166;BME280;65085;46.718;20.136;2024-03-29T10:56:31;100563.63;;;24.52;33.54
76166;BME280;65085;46.718;20.136;2024-03-29T10:59:41;100572.47;;;23.88;35.01
76166;BME280;65085;46.718;20.136;2024-03-29T11:02:49;100550.78;;;23.38;35.88
76166;BME280;65085;46.718;20.136;2024-03-29T11:05:58;100557.31;;;24.43;34.98
76166;BME280;65085;46.718;20.136;2024-03-29T11:09:05;100529.88;;;25.51;33.59
76166;BME280;65085;46.718;20.136;2024-03-29T11:12:12;100529.94;;;25.66;33.72
76166;BME280;65085;46.718;20.136;2024-03-29T11:15:19;100522.28;;;25.28;33.90
76166;BME280;65085;46.718;20.136;2024-03-29T11:18:24;100509.25;;;25.11;33.93
76166;BME280;65085;46.718;20.136;2024-03-29T11:21:26;100511.75;;;25.56;33.97
76166;BME280;65085;46.718;20.136;2024-03-29T11:24:31;100501.63;;;25.91;33.75
76166;BME280;65085;46.718;20.136;2024-03-29T11:27:40;100503.28;;;26.26;34.16
76166;BME280;65085;46.718;20.136;2024-03-29T11:30:43;100520.19;;;25.85;34.54
76166;BME280;65085;46.718;20.136;2024-03-29T11:33:48;100501.63;;;25.67;35.51
76166;BME280;65085;46.718;20.136;2024-03-29T11:36:50;100502.47;;;26.98;33.66
76166;BME280;65085;46.718;20.136;2024-03-29T11:39:54;100490.53;;;27.32;34.14
76166;BME280;65085;46.718;20.136;2024-03-29T11:42:58;100495.69;;;26.12;35.86
76166;BME280;65085;46.718;20.136;2024-03-29T11:46:00;100492.81;;;25.69;36.15
76166;BME280;65085;46.718;20.136;2024-03-29T11:49:03;100469.56;;;26.53;35.92
76166;BME280;65085;46.718;20.136;2024-03-29T11:52:06;100459.16;;;26.39;34.79
76166;BME280;65085;46.718;20.136;2024-03-29T11:55:08;100462.97;;;27.39;33.89
76166;BME280;65085;46.718;20.136;2024-03-29T11:58:11;100460.25;;;27.25;33.86
76166;BME280;65085;46.718;20.136;2024-03-29T12:01:15;100465.75;;;27.19;34.46
76166;BME280;65085;46.718;20.136;2024-03-29T12:04:20;100468.66;;;27.10;33.54
76166;BME280;65085;46.718;20.136;2024-03-29T12:07:22;100453.69;;;27.48;33.61
76166;BME280;65085;46.718;20.136;2024-03-29T12:10:26;100454.72;;;27.10;34.13
76166;BME280;65085;46.718;20.136;2024-03-29T12:13:31;100444.66;;;26.98;34.17
76166;BME280;65085;46.718;20.136;2024-03-29T12:16:42;100435.75;;;26.80;34.47
76166;BME280;65085;46.718;20.136;2024-03-29T12:19:45;100438.56;;;27.14;34.27
76166;BME280;65085;46.718;20.136;2024-03-29T12:22:50;100433.53;;;26.35;35.28
76166;BME280;65085;46.718;20.136;2024-03-29T12:25:54;100421.03;;;26.45;35.70
76166;BME280;65085;46.718;20.136;2024-03-29T12:29:00;100415.88;;;26.24;36.25
76166;BME280;65085;46.718;20.136;2024-03-29T12:32:06;100400.22;;;25.30;37.14
76166;BME280;65085;46.718;20.136;2024-03-29T12:35:09;100407.75;;;24.18;39.82
76166;BME280;65085;46.718;20.136;2024-03-29T12:38:13;100396.22;;;23.83;40.50
76166;BME280;65085;46.718;20.136;2024-03-29T12:41:16;100388.56;;;23.60;41.13
76166;BME280;65085;46.718;20.136;2024-03-29T12:44:19;100388.56;;;23.51;41.69
76166;BME280;65085;46.718;20.136;2024-03-29T12:47:21;100390.44;;;23.27;41.96
76166;BME280;65085;46.718;20.136;2024-03-29T12:50:26;100394.13;;;23.15;42.11
76166;BME280;65085;46.718;20.136;2024-03-29T12:53:28;100389.97;;;23.20;41.88
76166;BME280;65085;46.718;20.136;2024-03-29T12:56:31;100396.75;;;23.55;41.90
76166;BME280;65085;46.718;20.136;2024-03-29T12:59:35;100379.03;;;23.34;42.02
76166;BME280;65085;46.718;20.136;2024-03-29T13:02:38;100376.72;;;23.51;41.48
76166;BME280;65085;46.718;20.136;2024-03-29T13:05:40;100359.88;;;23.90;41.43
76166;BME280;65085;46.718;20.136;2024-03-29T13:08:43;100369.81;;;24.47;40.96
76166;BME280;65085;46.718;20.136;2024-03-29T13:11:45;100353.78;;;24.10;40.35
76166;BME280;65085;46.718;20.136;2024-03-29T13:14:49;100345.31;;;24.46;39.72
76166;BME280;65085;46.718;20.136;2024-03-29T13:17:52;100363.34;;;24.09;41.20
76166;BME280;65085;46.718;20.136;2024-03-29T13:20:54;100344.00;;;23.82;40.76
76166;BME280;65085;46.718;20.136;2024-03-29T13:23:58;100328.88;;;23.92;40.37
76166;BME280;65085;46.718;20.136;2024-03-29T13:27:00;100320.28;;;23.81;40.65
76166;BME280;65085;46.718;20.136;2024-03-29T13:30:06;100315.06;;;23.65;40.24
76166;BME280;65085;46.718;20.136;2024-03-29T13:33:09;100322.91;;;23.66;39.37
76166;BME280;65085;46.718;20.136;2024-03-29T13:36:11;100321.97;;;23.87;38.92
76166;BME280;65085;46.718;20.136;2024-03-29T13:39:14;100319.31;;;24.58;37.82
76166;BME280;65085;46.718;20.136;2024-03-29T13:42:17;100316.25;;;24.56;37.43
76166;BME280;65085;46.718;20.136;2024-03-29T13:45:21;100320.38;;;24.37;37.72
76166;BME280;65085;46.718;20.136;2024-03-29T13:48:23;100323.94;;;24.28;38.85
76166;BME280;65085;46.718;20.136;2024-03-29T13:51:25;100322.06;;;24.02;39.60
76166;BME280;65085;46.718;20.136;2024-03-29T13:54:27;100312.56;;;23.76;39.61
76166;BME280;65085;46.718;20.136;2024-03-29T13:57:32;100310.16;;;23.60;39.10
76166;BME280;65085;46.718;20.136;2024-03-29T14:00:35;100315.38;;;23.67;39.02
76166;BME280;65085;46.718;20.136;2024-03-29T14:03:37;100290.94;;;25.15;36.74
76166;BME280;65085;46.718;20.136;2024-03-29T14:06:40;100298.97;;;26.63;34.17
76166;BME280;65085;46.718;20.136;2024-03-29T14:10:07;100296.59;;;25.21;36.69
76166;BME280;65085;46.718;20.136;2024-03-29T14:13:10;100296.91;;;25.23;36.57
76166;BME280;65085;46.718;20.136;2024-03-29T14:16:13;100299.75;;;24.29;37.22
76166;BME280;65085;46.718;20.136;2024-03-29T14:19:16;100296.06;;;23.81;37.96
76166;BME280;65085;46.718;20.136;2024-03-29T14:22:18;100288.84;;;23.75;38.85
76166;BME280;65085;46.718;20.136;2024-03-29T14:25:25;100302.25;;;24.18;38.07
76166;BME280;65085;46.718;20.136;2024-03-29T14:32:24;100310.88;;;23.87;39.36
76166;BME280;65085;46.718;20.136;2024-03-29T14:35:26;100317.88;;;23.11;39.59
76166;BME280;65085;46.718;20.136;2024-03-29T14:38:30;100317.25;;;22.80;40.08
76166;BME280;65085;46.718;20.136;2024-03-29T14:41:33;100316.94;;;22.69;40.65
76166;BME280;65085;46.718;20.136;2024-03-29T14:44:40;100325.03;;;22.45;40.40
76166;BME280;65085;46.718;20.136;2024-03-29T14:47:44;100330.91;;;24.24;37.57
76166;BME280;65085;46.718;20.136;2024-03-29T14:50:46;100318.81;;;24.03;37.81
76166;BME280;65085;46.718;20.136;2024-03-29T14:53:48;100319.91;;;23.37;39.12
76166;BME280;65085;46.718;20.136;2024-03-29T14:56:51;100342.03;;;23.10;40.86
76166;BME280;65085;46.718;20.136;2024-03-29T14:59:53;100330.31;;;22.79;42.13
76166;BME280;65085;46.718;20.136;2024-03-29T15:02:57;100325.78;;;22.37;42.74
76166;BME280;65085;46.718;20.136;2024-03-29T15:05:59;100307.19;;;21.98;42.72
76166;BME280;65085;46.718;20.136;2024-03-29T15:09:01;100322.72;;;22.05;43.87
76166;BME280;65085;46.718;20.136;2024-03-29T15:12:06;100310.22;;;21.91;44.25
76166;BME280;65085;46.718;20.136;2024-03-29T15:15:10;100315.47;;;21.98;43.59
76166;BME280;65085;46.718;20.136;2024-03-29T15:18:14;100326.47;;;22.20;43.96
76166;BME280;65085;46.718;20.136;2024-03-29T15:21:16;100317.56;;;22.24;43.50
76166;BME280;65085;46.718;20.136;2024-03-29T15:24:20;100320.28;;;22.16;43.52
76166;BME280;65085;46.718;20.136;2024-03-29T15:27:22;100319.69;;;22.12;44.08
76166;BME280;65085;46.718;20.136;2024-03-29T15:30:56;100325.34;;;22.08;43.50
76166;BME280;65085;46.718;20.136;2024-03-29T15:34:03;100314.38;;;21.96;44.00
76166;BME280;65085;46.718;20.136;2024-03-29T15:37:05;100327.25;;;21.90;44.77
76166;BME280;65085;46.718;20.136;2024-03-29T15:40:09;100327.03;;;21.75;45.60
76166;BME280;65085;46.718;20.136;2024-03-29T15:43:12;100327.81;;;21.54;46.26
76166;BME280;65085;46.718;20.136;2024-03-29T15:46:14;100329.41;;;21.43;45.71
76166;BME280;65085;46.718;20.136;2024-03-29T15:49:17;100330.38;;;21.49;45.76
76166;BME280;65085;46.718;20.136;2024-03-29T15:56:37;100325.34;;;21.56;46.15
76166;BME280;65085;46.718;20.136;2024-03-29T15:59:40;100328.06;;;21.47;46.89
76166;BME280;65085;46.718;20.136;2024-03-29T16:02:46;100323.88;;;21.43;46.61
76166;BME280;65085;46.718;20.136;2024-03-29T16:05:51;100320.09;;;21.28;47.33
76166;BME280;65085;46.718;20.136;2024-03-29T16:08:54;100307.88;;;21.16;47.44
76166;BME280;65085;46.718;20.136;2024-03-29T16:11:56;100301.59;;;20.94;48.70
76166;BME280;65085;46.718;20.136;2024-03-29T16:14:58;100305.91;;;20.83;48.99
76166;BME280;65085;46.718;20.136;2024-03-29T16:18:00;100299.63;;;20.70;49.23
76166;BME280;65085;46.718;20.136;2024-03-29T16:21:04;100304.75;;;20.59;49.45
76166;BME280;65085;46.718;20.136;2024-03-29T16:24:06;100292.31;;;20.42;50.27
76166;BME280;65085;46.718;20.136;2024-03-29T16:27:09;100305.25;;;20.32;50.41
76166;BME280;65085;46.718;20.136;2024-03-29T16:30:11;100297.84;;;20.17;51.09
76166;BME280;65085;46.718;20.136;2024-03-29T16:33:15;100282.16;;;20.01;51.94
76166;BME280;65085;46.718;20.136;2024-03-29T16:36:20;100293.00;;;19.96;52.35
76166;BME280;65085;46.718;20.136;2024-03-29T16:39:22;100289.00;;;19.84;52.50
76166;BME280;65085;46.718;20.136;2024-03-29T16:46:41;100286.03;;;19.66;53.46
76166;BME280;65085;46.718;20.136;2024-03-29T16:49:44;100284.44;;;19.53;54.06
76166;BME280;65085;46.718;20.136;2024-03-29T16:52:47;100286.66;;;19.45;54.32
76166;BME280;65085;46.718;20.136;2024-03-29T16:55:49;100285.41;;;19.34;54.89
76166;BME280;65085;46.718;20.136;2024-03-29T16:58:52;100276.78;;;19.19;55.45
76166;BME280;65085;46.718;20.136;2024-03-29T17:01:55;100268.56;;;19.03;55.89